sensor_id;sensor_type;location;lat;lon;timestamp;pressure;altitude;pressure_sealevel;temperature;humidity
64644;BME280;51056;50.330;7.914;2023-04-27T00:00:23;100936.50;;;5.11;70.58
64644;BME280;51056;50.330;7.914;2023-04-27T00:03:27;100933.91;;;5.11;70.53
64644;BME280;51056;50.330;7.914;2023-04-27T00:06:33;100934.09;;;5.02;70.54
64644;BME280;51056;50.330;7.914;2023-04-27T00:09:37;100928.28;;;4.92;70.95
64644;BME280;51056;50.330;7.914;2023-04-27T00:12:40;100937.94;;;4.84;71.49
64644;BME280;51056;50.330;7.914;2023-04-27T00:15:44;100941.38;;;4.86;71.75
64644;BME280;51056;50.330;7.914;2023-04-27T00:18:47;100938.72;;;4.87;71.53
64644;BME280;51056;50.330;7.914;2023-04-27T00:21:50;100933.53;;;4.87;71.96
64644;BME280;51056;50.330;7.914;2023-04-27T00:24:57;100936.13;;;4.89;71.67
64644;BME280;51056;50.330;7.914;2023-04-27T00:28:00;100931.84;;;4.86;72.07
64644;BME280;51056;50.330;7.914;2023-04-27T00:31:03;100931.72;;;4.93;72.20
64644;BME280;51056;50.330;7.914;2023-04-27T00:34:07;100935.13;;;4.95;72.61
64644;BME280;51056;50.330;7.914;2023-04-27T00:37:10;100933.34;;;4.97;72.07
64644;BME280;51056;50.330;7.914;2023-04-27T00:40:15;100929.97;;;4.95;72.05
64644;BME280;51056;50.330;7.914;2023-04-27T00:43:18;100930.81;;;4.94;72.63
64644;BME280;51056;50.330;7.914;2023-04-27T00:46:21;100930.88;;;4.90;72.25
64644;BME280;51056;50.330;7.914;2023-04-27T00:49:24;100928.28;;;4.90;72.73
64644;BME280;51056;50.330;7.914;2023-04-27T00:52:28;100932.56;;;4.95;72.22
64644;BME280;51056;50.330;7.914;2023-04-27T00:55:31;100928.28;;;4.92;72.26
64644;BME280;51056;50.330;7.914;2023-04-27T00:58:34;100931.03;;;4.84;72.83
64644;BME280;51056;50.330;7.914;2023-04-27T01:01:37;100931.84;;;4.86;72.82
64644;BME280;51056;50.330;7.914;2023-04-27T01:04:40;100926.66;;;4.86;72.88
64644;BME280;51056;50.330;7.914;2023-04-27T01:07:43;100924.09;;;4.85;73.05
64644;BME280;51056;50.330;7.914;2023-04-27T01:10:46;100929.28;;;4.85;73.20
64644;BME280;51056;50.330;7.914;2023-04-27T01:13:51;100938.84;;;4.83;73.06
64644;BME280;51056;50.330;7.914;2023-04-27T01:16:56;100944.16;;;4.77;73.47
64644;BME280;51056;50.330;7.914;2023-04-27T01:19:58;100942.47;;;4.76;73.82
64644;BME280;51056;50.330;7.914;2023-04-27T01:23:01;100944.03;;;4.81;73.65
64644;BME280;51056;50.330;7.914;2023-04-27T01:26:05;100944.09;;;4.78;73.30
64644;BME280;51056;50.330;7.914;2023-04-27T01:29:08;100952.00;;;4.74;73.96
64644;BME280;51056;50.330;7.914;2023-04-27T01:32:12;100949.34;;;4.77;73.70
64644;BME280;51056;50.330;7.914;2023-04-27T01:35:15;100951.88;;;4.78;73.54
64644;BME280;51056;50.330;7.914;2023-04-27T01:38:18;100944.25;;;4.72;73.81
64644;BME280;51056;50.330;7.914;2023-04-27T01:41:21;100941.75;;;4.69;74.05
64644;BME280;51056;50.330;7.914;2023-04-27T01:44:25;100952.97;;;4.68;73.53
64644;BME280;51056;50.330;7.914;2023-04-27T01:47:30;100953.03;;;4.65;73.72
64644;BME280;51056;50.330;7.914;2023-04-27T01:50:33;100948.81;;;4.59;73.78
64644;BME280;51056;50.330;7.914;2023-04-27T01:53:35;100948.81;;;4.61;73.87
64644;BME280;51056;50.330;7.914;2023-04-27T01:56:38;100947.00;;;4.64;73.78
64644;BME280;51056;50.330;7.914;2023-04-27T01:59:41;100948.03;;;4.56;73.86
64644;BME280;51056;50.330;7.914;2023-04-27T02:02:44;100951.47;;;4.58;73.20
64644;BME280;51056;50.330;7.914;2023-04-27T02:05:47;100960.19;;;4.54;73.36
64644;BME280;51056;50.330;7.914;2023-04-27T02:08:50;100956.09;;;4.42;74.03
64644;BME280;51056;50.330;7.914;2023-04-27T02:11:53;100950.97;;;4.39;74.48
64644;BME280;51056;50.330;7.914;2023-04-27T02:14:57;100948.28;;;4.45;74.45
64644;BME280;51056;50.330;7.914;2023-04-27T02:18:01;100957.72;;;4.46;74.10
64644;BME280;51056;50.330;7.914;2023-04-27T02:21:08;100956.88;;;4.46;73.78
64644;BME280;51056;50.330;7.914;2023-04-27T02:24:13;100961.34;;;4.39;73.94
64644;BME280;51056;50.330;7.914;2023-04-27T02:27:16;100957.97;;;4.34;75.12
64644;BME280;51056;50.330;7.914;2023-04-27T02:30:19;100970.78;;;4.41;74.90
64644;BME280;51056;50.330;7.914;2023-04-27T02:33:23;100968.09;;;4.46;74.61
64644;BME280;51056;50.330;7.914;2023-04-27T02:36:27;100970.72;;;4.45;74.80
64644;BME280;51056;50.330;7.914;2023-04-27T02:39:31;100968.22;;;4.40;75.58
64644;BME280;51056;50.330;7.914;2023-04-27T02:42:34;100971.56;;;4.45;75.08
64644;BME280;51056;50.330;7.914;2023-04-27T02:45:37;100974.13;;;4.47;75.09
64644;BME280;51056;50.330;7.914;2023-04-27T02:48:42;100970.72;;;4.45;75.47
64644;BME280;51056;50.330;7.914;2023-04-27T02:51:45;100967.41;;;4.36;75.52
64644;BME280;51056;50.330;7.914;2023-04-27T02:54:48;100961.44;;;4.33;75.04
64644;BME280;51056;50.330;7.914;2023-04-27T02:57:51;100959.09;;;4.22;75.48
64644;BME280;51056;50.330;7.914;2023-04-27T03:00:54;100963.38;;;4.23;75.67
64644;BME280;51056;50.330;7.914;2023-04-27T03:03:57;100965.09;;;4.23;75.66
64644;BME280;51056;50.330;7.914;2023-04-27T03:07:04;100963.53;;;4.14;75.76
64644;BME280;51056;50.330;7.914;2023-04-27T03:10:07;100959.09;;;4.20;75.48
64644;BME280;51056;50.330;7.914;2023-04-27T03:13:13;100956.44;;;4.25;75.60
64644;BME280;51056;50.330;7.914;2023-04-27T03:16:16;100952.06;;;4.27;75.41
64644;BME280;51056;50.330;7.914;2023-04-27T03:19:19;100946.03;;;4.27;75.71
64644;BME280;51056;50.330;7.914;2023-04-27T03:22:22;100948.66;;;4.25;75.89
64644;BME280;51056;50.330;7.914;2023-04-27T03:25:25;100938.31;;;4.25;76.50
64644;BME280;51056;50.330;7.914;2023-04-27T03:28:28;100942.59;;;4.26;75.82
64644;BME280;51056;50.330;7.914;2023-04-27T03:31:31;100933.94;;;4.27;75.99
64644;BME280;51056;50.330;7.914;2023-04-27T03:34:34;100931.56;;;4.18;75.97
64644;BME280;51056;50.330;7.914;2023-04-27T03:37:37;100933.38;;;4.13;76.15
64644;BME280;51056;50.330;7.914;2023-04-27T03:40:40;100934.44;;;4.03;75.88
64644;BME280;51056;50.330;7.914;2023-04-27T03:43:46;100939.63;;;4.03;76.67
64644;BME280;51056;50.330;7.914;2023-04-27T03:46:49;100949.13;;;4.01;76.59
64644;BME280;51056;50.330;7.914;2023-04-27T03:49:53;100953.44;;;4.00;76.13
64644;BME280;51056;50.330;7.914;2023-04-27T03:52:56;100951.81;;;3.96;76.02
64644;BME280;51056;50.330;7.914;2023-04-27T03:56:00;100957.00;;;3.94;76.05
64644;BME280;51056;50.330;7.914;2023-04-27T03:59:04;100966.66;;;3.85;76.39
64644;BME280;51056;50.330;7.914;2023-04-27T04:02:09;100964.13;;;3.83;76.93
64644;BME280;51056;50.330;7.914;2023-04-27T04:05:13;100970.09;;;3.87;76.65
64644;BME280;51056;50.330;7.914;2023-04-27T04:08:17;100969.22;;;3.86;75.98
64644;BME280;51056;50.330;7.914;2023-04-27T04:11:20;100979.69;;;3.79;75.91
64644;BME280;51056;50.330;7.914;2023-04-27T04:14:24;100981.38;;;3.81;76.15
64644;BME280;51056;50.330;7.914;2023-04-27T04:17:29;100977.09;;;3.80;76.08
64644;BME280;51056;50.330;7.914;2023-04-27T04:20:33;100974.47;;;3.82;74.92
64644;BME280;51056;50.330;7.914;2023-04-27T04:23:36;100977.94;;;3.79;75.50
64644;BME280;51056;50.330;7.914;2023-04-27T04:26:40;100989.28;;;3.72;75.94
64644;BME280;51056;50.330;7.914;2023-04-27T04:29:43;100974.66;;;3.69;76.14
64644;BME280;51056;50.330;7.914;2023-04-27T04:32:46;100981.53;;;3.73;76.33
64644;BME280;51056;50.330;7.914;2023-04-27T04:35:49;100990.19;;;3.71;76.82
64644;BME280;51056;50.330;7.914;2023-04-27T04:38:55;100981.53;;;3.73;77.02
64644;BME280;51056;50.330;7.914;2023-04-27T04:42:01;100990.94;;;3.78;77.18
64644;BME280;51056;50.330;7.914;2023-04-27T04:45:06;100989.97;;;3.83;77.00
64644;BME280;51056;50.330;7.914;2023-04-27T04:48:10;100990.84;;;3.84;76.91
64644;BME280;51056;50.330;7.914;2023-04-27T04:51:14;100999.34;;;3.90;76.91
64644;BME280;51056;50.330;7.914;2023-04-27T04:54:20;101005.34;;;3.91;77.42
64644;BME280;51056;50.330;7.914;2023-04-27T04:57:24;101002.78;;;3.91;77.37
64644;BME280;51056;50.330;7.914;2023-04-27T05:00:31;100994.06;;;3.96;76.97
64644;BME280;51056;50.330;7.914;2023-04-27T05:03:37;101007.84;;;3.95;76.92
64644;BME280;51056;50.330;7.914;2023-04-27T05:06:39;101008.69;;;3.99;77.14
64644;BME280;51056;50.330;7.914;2023-04-27T05:09:42;100997.44;;;3.99;77.65
64644;BME280;51056;50.330;7.914;2023-04-27T05:12:45;101001.72;;;4.03;78.05
64644;BME280;51056;50.330;7.914;2023-04-27T05:15:48;100998.13;;;4.08;77.68
64644;BME280;51056;50.330;7.914;2023-04-27T05:18:51;101004.25;;;4.06;77.49
64644;BME280;51056;50.330;7.914;2023-04-27T05:21:54;101002.41;;;4.11;77.57
64644;BME280;51056;50.330;7.914;2023-04-27T05:24:57;101012.53;;;4.23;77.54
64644;BME280;51056;50.330;7.914;2023-04-27T05:28:00;101006.44;;;4.27;77.08
64644;BME280;51056;50.330;7.914;2023-04-27T05:31:03;101008.91;;;4.33;77.28
64644;BME280;51056;50.330;7.914;2023-04-27T05:34:06;101004.41;;;4.43;77.37
64644;BME280;51056;50.330;7.914;2023-04-27T05:37:12;101012.09;;;4.48;77.37
64644;BME280;51056;50.330;7.914;2023-04-27T05:40:36;101012.88;;;4.51;77.20
64644;BME280;51056;50.330;7.914;2023-04-27T05:43:42;101012.72;;;4.59;77.41
64644;BME280;51056;50.330;7.914;2023-04-27T05:46:46;101018.69;;;4.64;77.20
64644;BME280;51056;50.330;7.914;2023-04-27T05:49:50;101015.13;;;4.68;76.57
64644;BME280;51056;50.330;7.914;2023-04-27T05:52:54;101024.53;;;4.74;77.19
64644;BME280;51056;50.330;7.914;2023-04-27T05:55:57;101020.91;;;4.82;77.08
64644;BME280;51056;50.330;7.914;2023-04-27T05:58:50;101027.75;;;4.85;76.32
64644;BME280;51056;50.330;7.914;2023-04-27T06:01:53;101033.63;;;4.93;75.62
64644;BME280;51056;50.330;7.914;2023-04-27T06:04:56;101035.19;;;5.02;75.06
64644;BME280;51056;50.330;7.914;2023-04-27T06:07:59;101033.19;;;5.13;75.45
64644;BME280;51056;50.330;7.914;2023-04-27T06:11:02;101033.84;;;5.24;75.15
64644;BME280;51056;50.330;7.914;2023-04-27T06:14:05;101040.56;;;5.31;74.69
64644;BME280;51056;50.330;7.914;2023-04-27T06:17:08;101039.63;;;5.35;73.88
64644;BME280;51056;50.330;7.914;2023-04-27T06:20:10;101040.31;;;5.44;74.00
64644;BME280;51056;50.330;7.914;2023-04-27T06:23:14;101042.69;;;5.53;74.23
64644;BME280;51056;50.330;7.914;2023-04-27T06:26:17;101045.09;;;5.60;74.37
64644;BME280;51056;50.330;7.914;2023-04-27T06:29:20;101038.94;;;5.65;73.70
64644;BME280;51056;50.330;7.914;2023-04-27T06:32:23;101038.78;;;5.72;73.86
64644;BME280;51056;50.330;7.914;2023-04-27T06:35:25;101036.13;;;5.74;73.38
64644;BME280;51056;50.330;7.914;2023-04-27T06:38:28;101037.63;;;5.84;73.52
64644;BME280;51056;50.330;7.914;2023-04-27T06:41:31;101033.09;;;5.94;72.69
64644;BME280;51056;50.330;7.914;2023-04-27T06:44:36;101047.56;;;6.02;73.13
64644;BME280;51056;50.330;7.914;2023-04-27T06:47:40;101041.16;;;6.17;72.79
64644;BME280;51056;50.330;7.914;2023-04-27T06:50:45;101037.22;;;6.35;72.50
64644;BME280;51056;50.330;7.914;2023-04-27T06:53:49;101038.47;;;6.53;72.38
64644;BME280;51056;50.330;7.914;2023-04-27T06:56:52;101038.97;;;6.66;71.17
64644;BME280;51056;50.330;7.914;2023-04-27T06:59:56;101042.94;;;6.79;68.79
64644;BME280;51056;50.330;7.914;2023-04-27T07:02:59;101037.34;;;6.93;67.21
64644;BME280;51056;50.330;7.914;2023-04-27T07:06:02;101036.00;;;7.09;67.51
64644;BME280;51056;50.330;7.914;2023-04-27T07:09:05;101029.63;;;7.19;65.48
64644;BME280;51056;50.330;7.914;2023-04-27T07:12:09;101030.53;;;7.18;64.00
64644;BME280;51056;50.330;7.914;2023-04-27T07:15:12;101030.47;;;7.20;62.30
64644;BME280;51056;50.330;7.914;2023-04-27T07:18:15;101031.09;;;7.28;62.11
64644;BME280;51056;50.330;7.914;2023-04-27T07:21:18;101020.34;;;7.39;61.85
64644;BME280;51056;50.330;7.914;2023-04-27T07:24:22;101016.75;;;7.43;61.55
64644;BME280;51056;50.330;7.914;2023-04-27T07:27:25;101011.47;;;7.46;61.32
64644;BME280;51056;50.330;7.914;2023-04-27T07:30:29;101016.47;;;7.52;60.77
64644;BME280;51056;50.330;7.914;2023-04-27T07:33:33;101013.53;;;7.63;60.79
64644;BME280;51056;50.330;7.914;2023-04-27T07:36:36;101011.59;;;7.69;59.88
64644;BME280;51056;50.330;7.914;2023-04-27T07:39:40;101009.56;;;7.78;59.88
64644;BME280;51056;50.330;7.914;2023-04-27T07:42:44;101008.63;;;7.80;59.52
64644;BME280;51056;50.330;7.914;2023-04-27T07:45:50;101001.47;;;7.87;58.84
64644;BME280;51056;50.330;7.914;2023-04-27T07:48:54;101005.56;;;7.94;59.02
64644;BME280;51056;50.330;7.914;2023-04-27T07:51:58;100999.06;;;8.07;59.42
64644;BME280;51056;50.330;7.914;2023-04-27T07:55:01;100997.13;;;8.12;58.47
64644;BME280;51056;50.330;7.914;2023-04-27T07:58:05;100991.59;;;8.22;58.79
64644;BME280;51056;50.330;7.914;2023-04-27T08:01:09;100990.69;;;8.23;57.52
64644;BME280;51056;50.330;7.914;2023-04-27T08:04:12;100990.47;;;8.29;57.67
64644;BME280;51056;50.330;7.914;2023-04-27T08:07:15;100987.75;;;8.32;57.55
64644;BME280;51056;50.330;7.914;2023-04-27T08:10:19;100992.56;;;8.44;57.72
64644;BME280;51056;50.330;7.914;2023-04-27T08:13:22;100994.38;;;8.42;55.91
64644;BME280;51056;50.330;7.914;2023-04-27T08:16:26;100992.44;;;8.47;56.23
64644;BME280;51056;50.330;7.914;2023-04-27T08:19:30;100987.03;;;8.53;56.76
64644;BME280;51056;50.330;7.914;2023-04-27T08:22:33;100980.56;;;8.64;56.05
64644;BME280;51056;50.330;7.914;2023-04-27T08:25:35;100981.69;;;8.80;56.45
64644;BME280;51056;50.330;7.914;2023-04-27T08:28:39;100977.53;;;8.98;56.47
64644;BME280;51056;50.330;7.914;2023-04-27T08:31:43;100970.88;;;9.13;55.82
64644;BME280;51056;50.330;7.914;2023-04-27T08:34:46;100974.94;;;9.20;54.66
64644;BME280;51056;50.330;7.914;2023-04-27T08:37:51;100980.78;;;9.26;54.65
64644;BME280;51056;50.330;7.914;2023-04-27T08:40:55;100982.06;;;9.38;54.92
64644;BME280;51056;50.330;7.914;2023-04-27T08:43:58;100979.72;;;9.52;54.50
64644;BME280;51056;50.330;7.914;2023-04-27T08:47:03;100976.63;;;9.65;53.70
64644;BME280;51056;50.330;7.914;2023-04-27T08:50:06;100975.31;;;9.75;53.05
64644;BME280;51056;50.330;7.914;2023-04-27T08:53:16;100975.06;;;9.81;52.96
64644;BME280;51056;50.330;7.914;2023-04-27T08:56:20;100963.25;;;9.93;52.80
64644;BME280;51056;50.330;7.914;2023-04-27T08:59:25;100967.56;;;9.94;51.84
64644;BME280;51056;50.330;7.914;2023-04-27T09:02:28;100970.75;;;10.00;51.99
64644;BME280;51056;50.330;7.914;2023-04-27T09:05:32;100960.56;;;10.15;50.91
64644;BME280;51056;50.330;7.914;2023-04-27T09:08:45;100949.78;;;10.22;49.01
64644;BME280;51056;50.330;7.914;2023-04-27T09:11:49;100955.97;;;10.20;48.68
64644;BME280;51056;50.330;7.914;2023-04-27T09:14:57;100954.81;;;10.27;48.74
64644;BME280;51056;50.330;7.914;2023-04-27T09:18:00;100954.50;;;10.35;49.18
64644;BME280;51056;50.330;7.914;2023-04-27T09:21:03;100946.31;;;10.42;48.09
64644;BME280;51056;50.330;7.914;2023-04-27T09:24:10;100952.09;;;10.49;48.47
64644;BME280;51056;50.330;7.914;2023-04-27T09:27:18;100952.47;;;10.60;48.90
64644;BME280;51056;50.330;7.914;2023-04-27T09:30:21;100939.19;;;10.65;48.20
64644;BME280;51056;50.330;7.914;2023-04-27T09:33:30;100946.19;;;10.83;51.42
64644;BME280;51056;50.330;7.914;2023-04-27T09:36:36;100946.88;;;11.06;48.98
64644;BME280;51056;50.330;7.914;2023-04-27T09:39:39;100939.88;;;10.87;46.14
64644;BME280;51056;50.330;7.914;2023-04-27T09:42:43;100932.38;;;10.99;47.56
64644;BME280;51056;50.330;7.914;2023-04-27T09:45:48;100941.44;;;11.10;47.83
64644;BME280;51056;50.330;7.914;2023-04-27T09:48:52;100934.13;;;11.17;45.96
64644;BME280;51056;50.330;7.914;2023-04-27T09:51:59;100926.00;;;11.23;46.67
64644;BME280;51056;50.330;7.914;2023-04-27T09:55:02;100922.38;;;11.43;47.84
64644;BME280;51056;50.330;7.914;2023-04-27T10:07:37;100910.75;;;11.66;46.96
64644;BME280;51056;50.330;7.914;2023-04-27T10:10:42;100904.06;;;11.78;46.11
64644;BME280;51056;50.330;7.914;2023-04-27T10:13:50;100908.75;;;11.89;44.33
64644;BME280;51056;50.330;7.914;2023-04-27T10:16:55;100895.50;;;11.92;45.07
64644;BME280;51056;50.330;7.914;2023-04-27T10:19:59;100900.06;;;11.88;44.14
64644;BME280;51056;50.330;7.914;2023-04-27T10:23:06;100891.88;;;11.94;45.13
64644;BME280;51056;50.330;7.914;2023-04-27T10:26:10;100892.84;;;12.09;45.56
64644;BME280;51056;50.330;7.914;2023-04-27T10:29:14;100888.81;;;12.19;43.72
64644;BME280;51056;50.330;7.914;2023-04-27T10:32:24;100878.81;;;12.10;43.00
64644;BME280;51056;50.330;7.914;2023-04-27T10:35:32;100883.31;;;12.24;43.72
64644;BME280;51056;50.330;7.914;2023-04-27T10:38:38;100888.94;;;12.49;44.65
64644;BME280;51056;50.330;7.914;2023-04-27T10:41:51;100889.72;;;12.67;43.73
64644;BME280;51056;50.330;7.914;2023-04-27T10:44:56;100885.47;;;12.80;44.05
64644;BME280;51056;50.330;7.914;2023-04-27T10:48:00;100878.53;;;12.79;42.39
64644;BME280;51056;50.330;7.914;2023-04-27T10:51:03;100872.03;;;12.71;42.05
64644;BME280;51056;50.330;7.914;2023-04-27T10:54:07;100867.69;;;12.86;41.87
64644;BME280;51056;50.330;7.914;2023-04-27T10:57:10;100865.47;;;12.94;41.63
64644;BME280;51056;50.330;7.914;2023-04-27T11:00:15;100864.38;;;12.98;41.64
64644;BME280;51056;50.330;7.914;2023-04-27T11:03:24;100854.66;;;13.14;43.11
64644;BME280;51056;50.330;7.914;2023-04-27T11:06:27;100864.75;;;13.22;42.02
64644;BME280;51056;50.330;7.914;2023-04-27T11:09:32;100856.75;;;13.23;41.80
64644;BME280;51056;50.330;7.914;2023-04-27T11:12:35;100851.31;;;13.28;41.68
64644;BME280;51056;50.330;7.914;2023-04-27T11:15:42;100849.69;;;13.25;41.94
64644;BME280;51056;50.330;7.914;2023-04-27T11:18:45;100840.16;;;13.23;40.64
64644;BME280;51056;50.330;7.914;2023-04-27T11:21:49;100846.00;;;13.44;42.33
64644;BME280;51056;50.330;7.914;2023-04-27T11:24:53;100832.59;;;13.63;41.65
64644;BME280;51056;50.330;7.914;2023-04-27T11:27:56;100820.31;;;13.78;42.05
64644;BME280;51056;50.330;7.914;2023-04-27T11:31:00;100822.53;;;13.55;40.65
64644;BME280;51056;50.330;7.914;2023-04-27T11:34:03;100817.31;;;13.69;40.48
64644;BME280;51056;50.330;7.914;2023-04-27T11:37:06;100817.59;;;13.79;41.34
64644;BME280;51056;50.330;7.914;2023-04-27T11:40:12;100818.22;;;13.97;42.46
64644;BME280;51056;50.330;7.914;2023-04-27T11:43:16;100820.50;;;14.17;41.25
64644;BME280;51056;50.330;7.914;2023-04-27T11:46:19;100834.00;;;14.11;39.61
64644;BME280;51056;50.330;7.914;2023-04-27T11:49:24;100828.38;;;14.17;39.79
64644;BME280;51056;50.330;7.914;2023-04-27T11:52:27;100813.97;;;14.37;39.56
64644;BME280;51056;50.330;7.914;2023-04-27T11:55:34;100814.41;;;14.44;40.07
64644;BME280;51056;50.330;7.914;2023-04-27T11:58:38;100818.75;;;14.59;40.89
64644;BME280;51056;50.330;7.914;2023-04-27T12:01:41;100807.44;;;14.57;40.77
64644;BME280;51056;50.330;7.914;2023-04-27T12:04:45;100800.44;;;14.71;41.00
64644;BME280;51056;50.330;7.914;2023-04-27T12:07:56;100798.97;;;14.67;41.15
64644;BME280;51056;50.330;7.914;2023-04-27T12:11:07;100793.22;;;14.74;40.20
64644;BME280;51056;50.330;7.914;2023-04-27T12:14:10;100789.31;;;14.80;39.43
64644;BME280;51056;50.330;7.914;2023-04-27T12:17:13;100788.72;;;14.89;40.08
64644;BME280;51056;50.330;7.914;2023-04-27T12:20:16;100786.06;;;15.16;40.26
64644;BME280;51056;50.330;7.914;2023-04-27T12:23:19;100780.19;;;15.38;39.69
64644;BME280;51056;50.330;7.914;2023-04-27T12:26:23;100776.38;;;15.55;38.52
64644;BME280;51056;50.330;7.914;2023-04-27T12:29:25;100773.81;;;15.53;37.33
64644;BME280;51056;50.330;7.914;2023-04-27T12:32:29;100783.31;;;15.43;36.95
64644;BME280;51056;50.330;7.914;2023-04-27T12:35:32;100763.41;;;15.39;36.93
64644;BME280;51056;50.330;7.914;2023-04-27T12:38:36;100771.53;;;15.49;37.12
64644;BME280;51056;50.330;7.914;2023-04-27T12:41:39;100760.22;;;15.59;37.09
64644;BME280;51056;50.330;7.914;2023-04-27T12:44:42;100761.81;;;15.88;37.76
64644;BME280;51056;50.330;7.914;2023-04-27T12:47:46;100754.72;;;16.01;36.50
64644;BME280;51056;50.330;7.914;2023-04-27T12:50:49;100752.13;;;16.25;36.41
64644;BME280;51056;50.330;7.914;2023-04-27T12:53:53;100742.78;;;16.32;36.03
64644;BME280;51056;50.330;7.914;2023-04-27T12:56:56;100734.56;;;16.24;35.86
64644;BME280;51056;50.330;7.914;2023-04-27T12:59:59;100740.03;;;16.58;36.95
64644;BME280;51056;50.330;7.914;2023-04-27T13:03:03;100727.94;;;16.90;36.72
64644;BME280;51056;50.330;7.914;2023-04-27T13:06:06;100739.78;;;17.20;37.20
64644;BME280;51056;50.330;7.914;2023-04-27T13:09:10;100731.13;;;17.29;35.49
64644;BME280;51056;50.330;7.914;2023-04-27T13:12:14;100730.91;;;17.55;35.68
64644;BME280;51056;50.330;7.914;2023-04-27T13:15:17;100733.53;;;17.55;35.56
64644;BME280;51056;50.330;7.914;2023-04-27T13:18:20;100740.28;;;17.93;35.32
64644;BME280;51056;50.330;7.914;2023-04-27T13:21:22;100728.84;;;18.47;34.56
64644;BME280;51056;50.330;7.914;2023-04-27T13:24:25;100725.09;;;18.28;32.87
64644;BME280;51056;50.330;7.914;2023-04-27T13:27:30;100727.94;;;18.36;32.60
64644;BME280;51056;50.330;7.914;2023-04-27T13:30:33;100729.22;;;17.99;32.88
64644;BME280;51056;50.330;7.914;2023-04-27T13:33:38;100720.72;;;18.39;33.52
64644;BME280;51056;50.330;7.914;2023-04-27T13:36:41;100715.69;;;19.10;33.38
64644;BME280;51056;50.330;7.914;2023-04-27T13:39:45;100721.03;;;19.71;32.52
64644;BME280;51056;50.330;7.914;2023-04-27T13:43:34;100721.41;;;20.16;32.34
64644;BME280;51056;50.330;7.914;2023-04-27T13:46:37;100722.84;;;19.49;31.72
64644;BME280;51056;50.330;7.914;2023-04-27T13:54:04;100713.94;;;19.20;32.39
64644;BME280;51056;50.330;7.914;2023-04-27T13:57:07;100717.31;;;19.01;32.75
64644;BME280;51056;50.330;7.914;2023-04-27T14:00:10;100711.63;;;19.05;32.64
64644;BME280;51056;50.330;7.914;2023-04-27T14:03:14;100707.47;;;20.34;31.55
64644;BME280;51056;50.330;7.914;2023-04-27T14:06:18;100702.03;;;21.31;29.03
64644;BME280;51056;50.330;7.914;2023-04-27T14:09:21;100705.00;;;20.52;29.31
64644;BME280;51056;50.330;7.914;2023-04-27T14:12:26;100709.06;;;21.42;29.02
64644;BME280;51056;50.330;7.914;2023-04-27T14:15:30;100702.47;;;19.71;29.86
64644;BME280;51056;50.330;7.914;2023-04-27T14:18:39;100706.59;;;18.81;31.81
64644;BME280;51056;50.330;7.914;2023-04-27T14:21:42;100719.38;;;17.89;32.54
64644;BME280;51056;50.330;7.914;2023-04-27T14:24:45;100715.78;;;17.57;33.43
64644;BME280;51056;50.330;7.914;2023-04-27T14:27:48;100705.94;;;17.81;32.98
64644;BME280;51056;50.330;7.914;2023-04-27T14:30:53;100708.56;;;17.93;33.94
64644;BME280;51056;50.330;7.914;2023-04-27T14:33:56;100714.13;;;17.78;33.97
64644;BME280;51056;50.330;7.914;2023-04-27T14:37:00;100710.94;;;17.73;33.96
64644;BME280;51056;50.330;7.914;2023-04-27T14:40:03;100713.38;;;17.31;34.13
64644;BME280;51056;50.330;7.914;2023-04-27T14:43:08;100702.53;;;17.12;34.44
64644;BME280;51056;50.330;7.914;2023-04-27T14:46:12;100703.72;;;17.19;34.33
64644;BME280;51056;50.330;7.914;2023-04-27T14:49:15;100699.41;;;17.29;34.42
64644;BME280;51056;50.330;7.914;2023-04-27T14:52:18;100694.03;;;17.87;33.55
64644;BME280;51056;50.330;7.914;2023-04-27T14:55:22;100691.88;;;18.56;33.57
64644;BME280;51056;50.330;7.914;2023-04-27T14:58:26;100688.63;;;18.32;31.97
64644;BME280;51056;50.330;7.914;2023-04-27T15:01:28;100690.31;;;18.22;32.94
64644;BME280;51056;50.330;7.914;2023-04-27T15:04:32;100682.06;;;19.31;32.20
64644;BME280;51056;50.330;7.914;2023-04-27T15:07:40;100676.19;;;20.57;29.71
64644;BME280;51056;50.330;7.914;2023-04-27T15:10:44;100684.47;;;19.84;29.99
64644;BME280;51056;50.330;7.914;2023-04-27T15:13:47;100662.19;;;18.95;30.97
64644;BME280;51056;50.330;7.914;2023-04-27T15:16:51;100656.28;;;18.28;32.48
64644;BME280;51056;50.330;7.914;2023-04-27T15:19:54;100647.25;;;18.52;32.60
64644;BME280;51056;50.330;7.914;2023-04-27T15:22:56;100653.09;;;18.34;33.00
64644;BME280;51056;50.330;7.914;2023-04-27T15:26:00;100651.59;;;19.25;31.98
64644;BME280;51056;50.330;7.914;2023-04-27T15:29:03;100644.38;;;19.27;31.66
64644;BME280;51056;50.330;7.914;2023-04-27T15:32:06;100641.63;;;19.48;31.42
64644;BME280;51056;50.330;7.914;2023-04-27T15:35:09;100639.25;;;20.63;30.63
64644;BME280;51056;50.330;7.914;2023-04-27T15:38:13;100633.69;;;21.51;29.65
64644;BME280;51056;50.330;7.914;2023-04-27T15:41:17;100634.03;;;21.38;28.92
64644;BME280;51056;50.330;7.914;2023-04-27T15:44:20;100630.47;;;20.53;29.86
64644;BME280;51056;50.330;7.914;2023-04-27T15:47:23;100621.38;;;19.88;31.11
64644;BME280;51056;50.330;7.914;2023-04-27T15:50:26;100623.72;;;19.81;30.83
64644;BME280;51056;50.330;7.914;2023-04-27T15:53:30;100623.06;;;19.89;31.55
64644;BME280;51056;50.330;7.914;2023-04-27T15:56:37;100625.44;;;19.51;31.29
64644;BME280;51056;50.330;7.914;2023-04-27T15:59:56;100619.31;;;18.80;31.90
64644;BME280;51056;50.330;7.914;2023-04-27T16:02:59;100625.16;;;18.42;32.07
64644;BME280;51056;50.330;7.914;2023-04-27T16:06:02;100619.81;;;18.21;32.97
64644;BME280;51056;50.330;7.914;2023-04-27T16:09:06;100619.75;;;17.79;34.13
64644;BME280;51056;50.330;7.914;2023-04-27T16:12:10;100610.81;;;18.23;33.16
64644;BME280;51056;50.330;7.914;2023-04-27T16:15:13;100603.06;;;18.31;32.82
64644;BME280;51056;50.330;7.914;2023-04-27T16:18:22;100602.97;;;18.22;33.51
64644;BME280;51056;50.330;7.914;2023-04-27T16:21:25;100598.72;;;18.30;33.61